Time;durP1;ratioP1;P1;durP2;ratioP2;P2;SDS_P1;SDS_P2;PMS_P1;PMS_P2;Temp;Humidity;BMP_temperature;BMP_pressure;BME280_temperature;BME280_humidity;BME280_pressure;Samples;Min_cycle;Max_cycle;Signal;HPM_P1;HPM_P2
2023/06/02 00:00:00;;;;;;;7.88;5.03;;;;;;;15.31;62.38;151132.38;5064185;28;20025;-68
2023/06/02 00:02:29;;;;;;;7.88;5.22;;;;;;;15.23;62.29;151113.06;5063591;28;20079;-68
2023/06/02 00:04:59;;;;;;;10.95;5.43;;;;;;;15.32;62.37;151136.25;5063779;28;20044;-69
2023/06/02 00:07:28;;;;;;;10.05;4.88;;;;;;;15.32;61.86;151136.25;5062711;28;20096;-67
2023/06/02 00:09:55;;;;;;;9.32;4.30;;;;;;;15.33;61.81;151137.50;5079148;28;20225;-67
2023/06/02 00:12:22;;;;;;;7.57;4.60;;;;;;;15.29;61.79;151128.53;5062637;28;20206;-66
2023/06/02 00:14:49;;;;;;;9.30;4.15;;;;;;;15.27;61.27;151123.34;5063838;28;20043;-67
2023/06/02 00:17:18;;;;;;;8.25;3.70;;;;;;;15.25;nan;151118.22;5062443;28;20047;-67
2023/06/02 00:19:45;;;;;;;9.27;4.78;;;;;;;15.22;61.44;151109.19;5062372;28;20037;-67
2023/06/02 00:22:17;;;;;;;10.90;4.13;;;;;;;15.18;61.16;151100.22;5062934;28;20079;-68
2023/06/02 00:24:43;;;;;;;11.13;4.63;;;;;;;15.21;61.42;151107.94;5063387;28;20105;-68
2023/06/02 00:27:12;;;;;;;6.90;4.18;;;;;;;15.17;61.79;151097.63;5062228;28;20060;-68
2023/06/02 00:29:37;;;;;;;9.13;4.30;;;;;;;15.18;62.15;151100.22;5063094;28;20021;-68
2023/06/02 00:32:03;;;;;;;10.13;4.28;;;;;;;15.10;61.99;151080.88;5063450;28;20363;-67
2023/06/02 00:34:29;;;;;;;13.38;4.63;;;;;;;15.16;61.64;151095.03;5063432;28;20052;-68
2023/06/02 00:36:55;;;;;;;7.40;4.03;;;;;;;15.14;61.72;151089.91;5063124;28;20024;-67
2023/06/02 00:39:20;;;;;;;10.98;4.22;;;;;;;15.12;62.41;151084.72;5063456;28;20044;-66
2023/06/02 00:41:46;;;;;;;8.40;4.10;;;;;;;14.98;62.35;151051.31;5063012;28;20056;-67
2023/06/02 00:44:13;;;;;;;9.05;4.22;;;;;;;15.04;62.68;151065.47;5063229;28;20029;-69
2023/06/02 00:46:39;;;;;;;9.63;5.13;;;;;;;15.03;61.89;151062.88;5063227;28;20033;-69
2023/06/02 00:49:05;;;;;;;7.90;4.07;;;;;;;14.99;62.79;151052.56;5063187;28;20082;-69
2023/06/02 00:51:31;;;;;;;6.00;4.28;;;;;;;14.99;62.28;151053.88;5062052;28;20262;-69
2023/06/02 00:53:57;;;;;;;9.32;4.00;;;;;;;14.95;62.49;151043.59;5063050;28;20113;-68
2023/06/02 00:56:24;;;;;;;15.07;4.63;;;;;;;14.93;61.90;151037.16;5061736;28;20020;-68
2023/06/02 00:58:50;;;;;;;10.50;3.80;;;;;;;14.87;62.66;151021.72;5062930;28;20068;-68
2023/06/02 01:01:18;;;;;;;13.35;5.80;;;;;;;14.84;62.36;151015.28;5062880;28;20051;-67
2023/06/02 01:03:47;;;;;;;6.63;4.13;;;;;;;14.83;62.22;151013.97;5063076;28;20029;-67
2023/06/02 01:06:23;;;;;;;5.88;4.05;;;;;;;14.60;61.69;150956.03;5058510;28;20041;-68
2023/06/02 01:08:50;;;;;;;7.43;4.30;;;;;;;14.43;61.84;150912.31;5075682;28;20037;-69
2023/06/02 01:11:17;;;;;;;15.85;3.83;;;;;;;14.77;62.50;150997.28;5062820;28;20052;-67
2023/06/02 01:13:42;;;;;;;10.50;4.07;;;;;;;14.73;62.98;150986.97;5062387;28;20039;-66
2023/06/02 01:16:13;;;;;;;7.63;3.85;;;;;;;14.73;62.54;150988.25;5061781;28;20021;-66
2023/06/02 01:18:45;;;;;;;8.50;4.00;;;;;;;14.59;62.25;150953.50;5062805;28;20071;-67
2023/06/02 01:21:22;;;;;;;8.45;3.70;;;;;;;14.67;62.42;150974.09;5062606;28;20059;-67
2023/06/02 01:23:52;;;;;;;8.20;3.40;;;;;;;14.71;63.27;150983.13;5062612;28;20036;-68
2023/06/02 01:26:17;;;;;;;7.68;4.30;;;;;;;14.66;62.67;150970.25;5061375;28;20302;-67
2023/06/02 01:28:43;;;;;;;8.07;4.93;;;;;;;14.66;62.88;150971.56;5061374;28;20032;-67
2023/06/02 01:31:16;;;;;;;7.97;4.25;;;;;;;14.49;63.61;150929.06;5061552;28;20106;-69
2023/06/02 01:33:50;;;;;;;6.93;3.92;;;;;;;14.50;64.56;150930.31;5063870;28;20048;-68
2023/06/02 01:36:21;;;;;;;6.22;3.75;;;;;;;14.49;63.72;150927.75;5066734;28;20071;-67
2023/06/02 01:38:48;;;;;;;10.75;4.50;;;;;;;14.39;63.54;150903.28;5066777;28;20317;-68
2023/06/02 01:41:16;;;;;;;10.63;4.90;;;;;;;14.42;63.83;150909.72;5066562;28;20052;-67
2023/06/02 01:43:42;;;;;;;10.48;3.90;;;;;;;14.38;63.66;150900.75;5066620;28;20031;-68
2023/06/02 01:46:09;;;;;;;8.15;4.35;;;;;;;14.38;64.50;150900.75;5066661;28;20033;-68
2023/06/02 01:48:35;;;;;;;8.05;3.95;;;;;;;14.42;64.36;150909.72;5066489;28;20074;-68
2023/06/02 01:51:00;;;;;;;12.77;4.55;;;;;;;14.46;64.96;150920.03;5066549;28;20127;-68
2023/06/02 01:53:26;;;;;;;9.27;4.22;;;;;;;14.47;63.21;150923.88;5066460;28;20032;-68
2023/06/02 01:55:53;;;;;;;10.90;5.45;;;;;;;14.33;64.27;150889.16;5066543;28;20104;-69
2023/06/02 01:58:19;;;;;;;9.75;5.25;;;;;;;14.45;64.47;150917.44;5065215;28;20261;-67
2023/06/02 02:00:44;;;;;;;9.10;4.40;;;;;;;14.38;63.88;150900.75;5066429;28;20066;-68
2023/06/02 02:03:12;;;;;;;12.18;4.45;;;;;;;14.42;63.50;150909.72;5066150;28;20052;-69
2023/06/02 02:05:37;;;;;;;8.27;4.50;;;;;;;14.46;63.91;150920.03;5066000;28;20103;-72
2023/06/02 02:08:04;;;;;;;7.65;4.03;;;;;;;14.49;64.62;150927.75;5066206;28;20024;-67
2023/06/02 02:10:30;;;;;;;10.20;6.40;;;;;;;14.54;64.47;150940.63;5065087;28;20029;-69
2023/06/02 02:12:56;;;;;;;7.72;5.38;;;;;;;14.56;64.94;150945.75;5065912;28;20357;-68
2023/06/02 02:15:22;;;;;;;15.15;5.30;;;;;;;14.56;64.96;150945.75;5066290;28;20032;-68
2023/06/02 02:17:49;;;;;;;6.00;4.45;;;;;;;14.42;65.04;150909.72;5065671;28;20037;-68
2023/06/02 02:20:18;;;;;;;7.18;3.92;;;;;;;14.42;65.08;150909.72;5064506;28;20100;-67
2023/06/02 02:22:46;;;;;;;7.10;3.92;;;;;;;14.42;64.51;150909.72;5065851;28;20047;-67
2023/06/02 02:25:12;;;;;;;7.53;4.05;;;;;;;14.52;64.63;150935.44;5064678;28;20206;-67
2023/06/02 02:27:39;;;;;;;11.52;4.15;;;;;;;14.51;64.18;150932.91;5065823;28;20040;-66
2023/06/02 02:30:06;;;;;;;10.13;4.82;;;;;;;14.64;65.47;150965.13;5065611;28;20017;-66
2023/06/02 02:32:34;;;;;;;5.93;4.35;;;;;;;14.69;64.74;150976.69;5065661;28;20120;-68
2023/06/02 02:35:00;;;;;;;11.30;4.15;;;;;;;14.73;64.56;150988.25;5065663;28;20351;-67
2023/06/02 02:37:27;;;;;;;9.45;4.05;;;;;;;14.73;64.90;150986.97;5065899;28;20060;-66
2023/06/02 02:39:53;;;;;;;5.88;4.10;;;;;;;14.86;65.09;151019.13;5065442;28;20397;-67
2023/06/02 02:42:19;;;;;;;12.00;4.05;;;;;;;14.90;65.22;151030.72;5065437;28;20039;-66
2023/06/02 02:44:45;;;;;;;6.53;3.60;;;;;;;14.90;64.41;151030.72;5064386;28;20063;-67
2023/06/02 02:47:11;;;;;;;10.55;3.80;;;;;;;14.97;64.17;151048.72;5065445;28;20021;-67
2023/06/02 02:49:36;;;;;;;10.85;3.58;;;;;;;15.10;64.90;151079.63;5063786;28;20040;-69
2023/06/02 02:52:02;;;;;;;6.97;3.13;;;;;;;15.16;64.11;151095.03;5065233;28;20096;-69
2023/06/02 02:54:28;;;;;;;9.73;3.55;;;;;;;15.07;62.48;151071.91;5065225;28;20029;-68
2023/06/02 02:56:53;;;;;;;6.18;3.58;;;;;;;15.19;62.43;151102.75;5065052;28;20040;-69
2023/06/02 02:59:19;;;;;;;7.97;3.20;;;;;;;15.35;61.07;151142.69;5065199;28;20048;-68
2023/06/02 03:01:46;;;;;;;7.45;3.20;;;;;;;15.44;61.96;151165.81;5064915;28;20028;-68
2023/06/02 03:04:21;;;;;;;19.50;3.88;;;;;;;15.35;61.16;151143.97;5064933;28;20183;-66
2023/06/02 03:06:49;;;;;;;7.93;3.38;;;;;;;15.36;61.15;151145.22;5064940;28;20055;-67
2023/06/02 03:09:18;;;;;;;5.13;2.63;;;;;;;15.50;60.62;151181.25;5065147;28;20064;-68
2023/06/02 03:11:44;;;;;;;7.13;3.03;;;;;;;15.35;60.63;151142.69;5064955;28;20245;-68
2023/06/02 03:14:10;;;;;;;10.30;3.58;;;;;;;15.54;60.62;151190.28;5064283;28;20352;-69
2023/06/02 03:16:39;;;;;;;7.18;3.25;;;;;;;15.57;60.03;151198.00;5064791;28;20029;-69
2023/06/02 03:19:05;;;;;;;7.35;2.97;;;;;;;15.60;60.21;151204.44;5064700;28;20052;-68
2023/06/02 03:21:31;;;;;;;5.45;2.80;;;;;;;15.61;60.26;151208.31;5064968;28;20044;-67
2023/06/02 03:24:00;;;;;;;5.43;2.90;;;;;;;15.65;59.58;151218.59;5064598;28;20029;-68
2023/06/02 03:26:26;;;;;;;5.88;2.78;;;;;;;15.69;59.02;151227.59;5064951;28;20353;-67
2023/06/02 03:28:55;;;;;;;6.97;2.88;;;;;;;15.74;59.26;151240.50;5063696;28;20036;-67
2023/06/02 03:31:20;;;;;;;4.18;2.70;;;;;;;15.64;59.33;151214.75;5064666;28;20032;-68
2023/06/02 03:33:46;;;;;;;7.60;3.08;;;;;;;15.85;59.53;151268.88;5064338;28;20033;-68
2023/06/02 03:36:13;;;;;;;5.53;2.90;;;;;;;15.76;59.47;151244.34;5064766;28;20037;-68
2023/06/02 03:38:38;;;;;;;6.00;2.78;;;;;;;15.99;60.03;151302.31;5064252;28;20021;-69
2023/06/02 03:41:04;;;;;;;6.93;2.75;;;;;;;15.98;60.17;151299.78;5064475;28;20044;-67
2023/06/02 03:43:30;;;;;;;8.48;2.97;;;;;;;15.99;60.15;151303.63;5064615;28;20025;-67
2023/06/02 03:45:55;;;;;;;7.63;3.35;;;;;;;16.00;59.60;151306.22;5064315;28;20067;-67
2023/06/02 03:48:21;;;;;;;5.07;2.70;;;;;;;16.01;59.88;151308.78;5064498;28;20102;-68
2023/06/02 03:50:46;;;;;;;4.47;2.78;;;;;;;16.00;59.72;151306.22;5064403;28;20088;-68
2023/06/02 03:53:12;;;;;;;6.88;3.10;;;;;;;16.10;59.55;151329.38;5064468;28;20079;-68
2023/06/02 03:55:38;;;;;;;9.07;3.63;;;;;;;16.17;59.63;151348.69;5064313;28;20033;-67
2023/06/02 03:58:03;;;;;;;7.22;3.15;;;;;;;16.21;60.12;151358.97;5063486;28;20286;-68
2023/06/02 04:00:29;;;;;;;9.77;2.97;;;;;;;16.14;59.36;151340.97;5047934;28;20021;-67
2023/06/02 04:02:55;;;;;;;7.28;3.00;;;;;;;16.09;59.16;151328.13;5065945;28;20028;-69
2023/06/02 04:05:21;;;;;;;11.77;3.20;;;;;;;16.14;59.80;151339.69;5065837;28;20041;-67
2023/06/02 04:07:46;;;;;;;6.22;2.97;;;;;;;16.15;60.05;151342.28;5066936;28;20039;-67
2023/06/02 04:10:12;;;;;;;8.07;3.53;;;;;;;16.05;60.53;151317.81;5065479;28;20039;-66
2023/06/02 04:12:38;;;;;;;9.77;2.85;;;;;;;16.15;60.17;151343.53;5062950;28;20027;-67
2023/06/02 04:15:04;;;;;;;4.93;2.92;;;;;;;16.21;60.50;151357.72;5063815;28;20029;-67
2023/06/02 04:17:29;;;;;;;5.53;3.17;;;;;;;16.02;59.44;151311.34;5063983;28;20043;-67
2023/06/02 04:19:55;;;;;;;4.30;2.40;;;;;;;16.17;59.20;151348.69;5063483;28;20040;-66
2023/06/02 04:22:21;;;;;;;4.88;2.65;;;;;;;16.02;59.56;151311.34;5063396;28;20100;-66
2023/06/02 04:24:47;;;;;;;5.78;3.00;;;;;;;16.17;59.62;151348.69;5063337;28;20028;-66
2023/06/02 04:27:14;;;;;;;3.78;2.47;;;;;;;16.10;60.51;151329.38;5063457;28;20055;-66
2023/06/02 04:29:41;;;;;;;4.60;2.60;;;;;;;16.11;60.72;151331.97;5061976;28;20029;-65
2023/06/02 04:32:07;;;;;;;6.35;2.70;;;;;;;16.01;60.03;151307.50;5063072;28;20025;-66
2023/06/02 04:34:32;;;;;;;7.75;2.55;;;;;;;16.19;60.23;151352.59;5045774;28;20120;-66
2023/06/02 04:36:58;;;;;;;6.65;3.47;;;;;;;16.12;60.51;151335.84;5043537;28;20041;-67
2023/06/02 04:39:24;;;;;;;6.88;3.10;;;;;;;16.04;60.63;151315.22;5044397;28;20314;-69
2023/06/02 04:41:50;;;;;;;3.85;2.92;;;;;;;15.88;60.08;151276.59;5063178;28;20071;-70
2023/06/02 04:44:18;;;;;;;5.45;3.00;;;;;;;15.91;60.38;151283.03;5062173;28;20039;-69
2023/06/02 04:46:44;;;;;;;6.18;3.40;;;;;;;15.87;60.56;151274.00;5062980;28;20025;-68
2023/06/02 04:49:09;;;;;;;3.83;2.70;;;;;;;15.92;59.89;151285.63;5063094;28;20333;-68
2023/06/02 04:51:37;;;;;;;5.47;2.47;;;;;;;16.01;62.16;151308.78;5061680;28;20202;-67
2023/06/02 04:54:03;;;;;;;4.93;2.50;;;;;;;15.86;64.15;151270.13;5058768;28;20314;-69
2023/06/02 04:56:30;;;;;;;7.00;3.25;;;;;;;15.98;64.89;151301.06;5070610;28;20025;-69
2023/06/02 04:58:56;;;;;;;5.75;2.83;;;;;;;15.98;64.82;151301.06;5062936;28;20033;-69
2023/06/02 05:01:22;;;;;;;6.82;3.05;;;;;;;16.16;66.01;151344.81;5059414;28;20029;-68
2023/06/02 05:03:47;;;;;;;4.28;2.78;;;;;;;16.14;65.44;151340.97;5042016;28;20025;-69
2023/06/02 05:06:13;;;;;;;7.55;3.38;;;;;;;15.96;66.81;151295.91;5061236;28;20044;-67
2023/06/02 05:08:39;;;;;;;7.93;2.72;;;;;;;15.98;65.58;151301.06;5062516;28;20040;-67
2023/06/02 05:11:05;;;;;;;6.05;3.30;;;;;;;16.08;64.68;151325.53;5061469;28;20179;-68
2023/06/02 05:13:31;;;;;;;6.97;3.35;;;;;;;16.02;62.78;151310.09;5062993;28;20025;-68
2023/06/02 05:15:57;;;;;;;7.55;3.15;;;;;;;16.16;62.81;151344.81;5062582;28;20025;-68
2023/06/02 05:18:23;;;;;;;7.70;3.13;;;;;;;16.19;63.19;151352.59;5062699;28;20021;-69
2023/06/02 05:20:51;;;;;;;5.57;2.80;;;;;;;16.05;62.11;151319.06;5062465;28;20024;-69
2023/06/02 05:23:16;;;;;;;5.47;2.90;;;;;;;15.87;62.25;151272.72;5062660;28;20029;-69
2023/06/02 05:25:42;;;;;;;6.60;2.70;;;;;;;16.22;59.90;151360.31;5062695;28;20067;-68
2023/06/02 05:28:08;;;;;;;7.93;3.03;;;;;;;16.22;61.28;151361.56;5062881;28;20029;-68
2023/06/02 05:30:34;;;;;;;5.20;2.75;;;;;;;16.27;61.91;151371.88;5062420;28;20045;-66
2023/06/02 05:33:00;;;;;;;4.15;2.83;;;;;;;16.39;61.14;151404.09;5062426;28;20029;-66
2023/06/02 05:35:26;;;;;;;4.18;2.83;;;;;;;16.21;60.01;151358.97;5062495;28;20036;-67
2023/06/02 05:37:51;;;;;;;7.40;3.30;;;;;;;16.27;60.14;151373.16;5062566;28;20302;-68
2023/06/02 05:40:17;;;;;;;6.43;3.58;;;;;;;16.37;60.37;151397.63;5062501;28;20021;-67
2023/06/02 05:42:43;;;;;;;5.90;3.47;;;;;;;16.36;60.74;151395.03;5062668;28;20063;-67
2023/06/02 05:45:09;;;;;;;10.27;3.65;;;;;;;16.14;59.97;151339.69;5058121;28;20033;-68
2023/06/02 05:47:34;;;;;;;9.63;3.30;;;;;;;16.41;59.72;151406.66;5054935;28;20028;-67
2023/06/02 05:50:00;;;;;;;4.97;3.30;;;;;;;16.52;59.97;151436.28;5062764;28;20024;-67
2023/06/02 05:52:26;;;;;;;10.10;3.78;;;;;;;16.59;60.59;151453.03;5061189;28;20045;-68
2023/06/02 05:54:51;;;;;;;7.28;3.35;;;;;;;16.64;60.21;151464.63;5062274;28;20202;-68
2023/06/02 05:57:17;;;;;;;6.85;4.20;;;;;;;16.78;60.45;151499.41;5062365;28;20052;-68
2023/06/02 05:59:43;;;;;;;8.00;3.60;;;;;;;16.84;60.81;151514.84;5060882;28;20344;-69
2023/06/02 06:02:09;;;;;;;8.80;3.92;;;;;;;16.62;60.64;151460.75;5061988;28;20028;-68
2023/06/02 06:04:35;;;;;;;9.90;3.90;;;;;;;17.15;59.63;151592.22;5061327;28;20027;-68
2023/06/02 06:07:00;;;;;;;14.05;3.92;;;;;;;17.17;60.29;151597.38;5043557;28;20052;-68
2023/06/02 06:09:26;;;;;;;11.07;3.65;;;;;;;16.85;60.75;151518.72;5061751;28;20040;-68
2023/06/02 06:11:52;;;;;;;10.65;3.78;;;;;;;16.93;60.28;151538.13;5060292;28;20036;-68
2023/06/02 06:14:18;;;;;;;7.70;3.63;;;;;;;17.15;60.00;151592.22;5061570;28;20330;-68
2023/06/02 06:16:43;;;;;;;5.85;3.83;;;;;;;17.39;58.89;151654.06;5061080;28;20035;-68
2023/06/02 06:19:10;;;;;;;5.53;3.45;;;;;;;17.52;58.96;151685.03;5061605;28;20032;-69
2023/06/02 06:21:36;;;;;;;13.60;3.50;;;;;;;17.50;58.95;151679.84;5064443;28;20309;-69
2023/06/02 06:24:04;;;;;;;9.45;3.88;;;;;;;17.47;57.34;151673.41;5081153;28;20094;-68
2023/06/02 06:26:30;;;;;;;7.72;3.40;;;;;;;17.68;57.88;151726.25;5065607;28;20060;-68
2023/06/02 06:28:56;;;;;;;9.20;4.32;;;;;;;17.73;56.96;151739.16;5065801;28;20052;-69
2023/06/02 06:31:21;;;;;;;12.40;3.83;;;;;;;17.89;56.96;151779.13;5065637;28;20032;-68
2023/06/02 06:33:47;;;;;;;6.47;4.07;;;;;;;17.92;56.42;151786.91;5065799;28;20024;-68
2023/06/02 06:36:12;;;;;;;8.18;3.92;;;;;;;17.93;57.17;151788.22;5064868;28;20097;-67
2023/06/02 06:38:38;;;;;;;6.22;4.00;;;;;;;18.19;55.55;151852.69;5065287;28;20045;-68
2023/06/02 06:41:04;;;;;;;12.35;4.88;;;;;;;18.29;55.17;151878.47;5064732;28;20081;-69
2023/06/02 06:43:30;;;;;;;8.63;4.28;;;;;;;18.37;54.98;151899.13;5064067;28;20024;-69
2023/06/02 06:45:55;;;;;;;6.00;3.72;;;;;;;18.50;52.64;151931.38;5065422;28;20028;-69
2023/06/02 06:48:21;;;;;;;7.78;3.75;;;;;;;18.62;54.63;151961.03;5065293;28;20023;-68
2023/06/02 06:50:48;;;;;;;10.65;3.85;;;;;;;18.72;54.25;151986.81;5065202;28;20021;-68
2023/06/02 06:53:14;;;;;;;5.97;3.08;;;;;;;18.51;51.05;151933.91;5065111;28;20221;-69
2023/06/02 06:55:39;;;;;;;5.82;2.70;;;;;;;18.57;51.22;151949.41;5065093;28;20123;-67
2023/06/02 06:58:05;;;;;;;6.50;3.60;;;;;;;18.56;50.81;151946.81;5069428;28;20028;-68
2023/06/02 07:00:31;;;;;;;6.63;3.30;;;;;;;18.79;50.17;152004.88;5064597;28;20063;-69
2023/06/02 07:02:57;;;;;;;6.80;2.85;;;;;;;18.93;51.17;152039.75;5063149;28;20036;-68
2023/06/02 07:05:22;;;;;;;6.95;3.17;;;;;;;18.86;48.11;152021.66;5064565;28;20048;-68
2023/06/02 07:07:49;;;;;;;5.07;3.20;;;;;;;18.95;49.21;152044.94;5064360;28;20353;-69
2023/06/02 07:10:14;;;;;;;9.77;3.10;;;;;;;18.90;50.25;152030.75;5064607;28;20021;-68
2023/06/02 07:12:43;;;;;;;11.85;3.78;;;;;;;19.18;48.06;152100.41;5064901;28;20025;-70
2023/06/02 07:15:09;;;;;;;7.47;3.47;;;;;;;19.12;48.20;152087.47;5064816;28;20029;-67
2023/06/02 07:17:35;;;;;;;6.90;2.78;;;;;;;19.19;48.48;152103.00;5064516;28;20116;-68
2023/06/02 07:20:00;;;;;;;7.18;2.85;;;;;;;19.24;45.77;152115.88;5064485;28;20031;-68
2023/06/02 07:22:26;;;;;;;5.55;2.78;;;;;;;19.49;47.29;152180.41;5064487;28;20055;-68
2023/06/02 07:24:51;;;;;;;7.75;3.58;;;;;;;19.47;47.09;152175.28;5064759;28;20241;-68
2023/06/02 07:27:17;;;;;;;10.15;3.40;;;;;;;19.45;47.49;152170.13;5064541;28;20020;-68
2023/06/02 07:29:43;;;;;;;7.88;3.28;;;;;;;19.52;48.40;152185.59;5064268;28;20017;-68
2023/06/02 07:32:49;;;;;;;9.38;3.55;;;;;;;19.64;48.40;152216.59;5063989;28;20040;-68
2023/06/02 07:35:16;;;;;;;10.13;3.38;;;;;;;19.76;48.42;152246.28;5064085;28;20036;-69
2023/06/02 07:37:41;;;;;;;9.57;3.65;;;;;;;19.98;49.44;152301.81;5063785;28;20083;-67
2023/06/02 07:40:07;;;;;;;6.20;3.60;;;;;;;20.11;48.53;152334.09;5064380;28;20021;-67
2023/06/02 07:42:33;;;;;;;5.38;3.17;;;;;;;19.98;46.77;152303.13;5058904;28;20029;-67
2023/06/02 07:45:51;;;;;;;5.60;3.13;;;;;;;20.13;46.67;152339.28;5059225;28;20025;-65
2023/06/02 07:48:17;;;;;;;7.65;3.05;;;;;;;20.09;45.72;152330.22;5063718;28;20097;-66
2023/06/02 07:50:42;;;;;;;8.32;3.50;;;;;;;19.97;45.54;152299.25;5063921;28;20029;-65
2023/06/02 07:53:08;;;;;;;7.97;3.00;;;;;;;20.16;45.54;152348.28;5063876;28;20020;-65
2023/06/02 07:55:33;;;;;;;7.43;2.72;;;;;;;20.28;46.13;152378.03;5063778;28;20033;-65
2023/06/02 07:57:59;;;;;;;7.57;2.92;;;;;;;20.43;45.59;152415.47;5063873;28;20025;-68
2023/06/02 08:00:25;;;;;;;7.63;3.25;;;;;;;20.25;44.57;152370.28;5063898;28;20027;-67
2023/06/02 08:02:51;;;;;;;5.50;3.10;;;;;;;20.30;44.55;152381.91;5063854;28;20079;-68
2023/06/02 08:05:17;;;;;;;9.80;3.08;;;;;;;20.20;44.36;152356.09;5063676;28;20044;-69
2023/06/02 08:07:44;;;;;;;4.85;3.10;;;;;;;20.27;44.73;152375.44;5045742;28;20029;-67
2023/06/02 08:10:11;;;;;;;6.63;2.70;;;;;;;20.58;44.99;152451.63;5063609;28;20016;-68
2023/06/02 08:12:37;;;;;;;6.43;3.05;;;;;;;20.75;45.25;152495.63;5063382;28;20035;-68
2023/06/02 08:15:04;;;;;;;6.97;3.25;;;;;;;20.48;44.53;152428.41;5063323;28;20024;-67
2023/06/02 08:17:30;;;;;;;8.90;3.65;;;;;;;20.38;44.14;152401.25;5063579;28;20202;-67
2023/06/02 08:19:57;;;;;;;8.02;3.75;;;;;;;20.62;44.81;152461.97;5063422;28;20036;-67
2023/06/02 08:22:25;;;;;;;8.10;3.22;;;;;;;20.81;44.87;152509.84;5047076;28;20026;-67
2023/06/02 08:24:52;;;;;;;8.10;3.10;;;;;;;21.07;46.31;152574.44;5063483;28;20194;-71
2023/06/02 08:27:20;;;;;;;8.13;3.25;;;;;;;21.19;44.09;152606.72;5063445;28;20044;-68
2023/06/02 08:29:46;;;;;;;8.98;3.40;;;;;;;21.27;43.83;152626.09;5063092;28;20056;-67
2023/06/02 08:32:12;;;;;;;9.77;3.08;;;;;;;21.05;43.44;152570.56;5063331;28;20025;-68
2023/06/02 08:34:41;;;;;;;6.65;3.40;;;;;;;21.16;43.09;152597.66;5063120;28;20055;-66
2023/06/02 08:37:16;;;;;;;6.70;3.22;;;;;;;21.06;43.49;152573.09;5063055;28;20033;-67
2023/06/02 08:39:45;;;;;;;6.80;3.17;;;;;;;20.98;43.88;152553.75;5045390;28;20194;-68
2023/06/02 08:42:11;;;;;;;6.05;3.38;;;;;;;21.29;43.90;152629.97;5062886;28;20092;-68
2023/06/02 08:44:41;;;;;;;10.48;3.67;;;;;;;21.62;44.76;152712.72;5062104;28;20036;-67
2023/06/02 08:47:11;;;;;;;5.28;3.10;;;;;;;21.78;43.75;152754.13;5062790;28;20095;-67
2023/06/02 08:49:46;;;;;;;5.80;3.22;;;;;;;21.94;44.21;152792.91;5061711;28;20025;-66
2023/06/02 08:52:15;;;;;;;6.60;3.47;;;;;;;21.75;43.89;152746.38;5047286;28;20029;-66
2023/06/02 08:54:41;;;;;;;7.45;3.20;;;;;;;21.96;42.33;152798.06;5062540;28;20332;-67
2023/06/02 08:57:09;;;;;;;9.52;3.40;;;;;;;22.01;43.54;152811.00;5062204;28;20052;-67
2023/06/02 08:59:36;;;;;;;6.22;3.17;;;;;;;22.13;43.67;152840.72;5062848;28;20025;-68
2023/06/02 09:02:02;;;;;;;8.25;3.35;;;;;;;22.19;43.02;152857.56;5063010;28;20084;-67
2023/06/02 09:04:27;;;;;;;8.80;3.60;;;;;;;22.29;43.73;152880.81;5062632;28;20021;-67
2023/06/02 09:07:11;;;;;;;7.45;3.47;;;;;;;22.30;43.62;152884.69;5062726;28;20095;-68
2023/06/02 09:09:42;;;;;;;10.93;3.72;;;;;;;22.08;42.79;152829.09;5062430;28;20041;-68
2023/06/02 09:12:09;;;;;;;11.52;3.92;;;;;;;22.09;43.06;152831.72;5062945;28;20345;-67
2023/06/02 09:17:43;;;;;;;7.75;4.07;;;;;;;22.66;44.30;152973.97;5072210;28;20123;-68
2023/06/02 09:20:11;;;;;;;7.57;3.80;;;;;;;22.64;43.61;152970.09;5080449;28;20033;-68
2023/06/02 09:22:57;;;;;;;11.07;3.63;;;;;;;22.52;43.38;152940.38;5076607;28;20067;-66
2023/06/02 09:25:29;;;;;;;9.60;4.15;;;;;;;22.73;42.76;152993.41;5080648;28;20397;-67
2023/06/02 09:28:00;;;;;;;9.00;3.95;;;;;;;22.76;42.58;152999.88;5080680;28;20074;-68
2023/06/02 09:30:27;;;;;;;7.03;3.80;;;;;;;22.82;43.26;153015.38;5063871;28;20297;-67
2023/06/02 09:33:34;;;;;;;8.55;4.25;;;;;;;22.93;42.60;153043.84;5080412;28;20041;-67
2023/06/02 09:36:00;;;;;;;9.43;4.00;;;;;;;22.69;43.28;152983.06;5060511;28;20032;-66
2023/06/02 09:38:25;;;;;;;10.02;3.85;;;;;;;22.68;44.20;152979.19;5060326;28;20437;-67
2023/06/02 09:40:51;;;;;;;9.15;3.88;;;;;;;22.58;44.13;152955.88;5073117;28;20361;-67
2023/06/02 09:43:30;;;;;;;7.40;4.20;;;;;;;22.45;43.88;152922.25;5080643;28;20040;-67
2023/06/02 09:46:00;;;;;;;10.27;4.15;;;;;;;22.86;44.50;153024.41;5060437;28;20415;-68
2023/06/02 09:48:29;;;;;;;7.38;4.00;;;;;;;22.89;45.34;153032.22;5058480;28;20127;-68
2023/06/02 09:50:56;;;;;;;9.48;4.20;;;;;;;22.47;43.95;152927.41;5062342;28;20048;-66
2023/06/02 09:53:22;;;;;;;15.40;4.55;;;;;;;22.59;43.88;152957.19;5062432;28;20290;-66
2023/06/02 09:55:50;;;;;;;9.05;4.15;;;;;;;22.56;43.99;152949.41;5063914;28;20025;-68
2023/06/02 09:58:17;;;;;;;11.93;4.45;;;;;;;23.09;44.95;153082.69;5065192;28;20218;-67
2023/06/02 10:00:42;;;;;;;8.68;4.30;;;;;;;23.19;44.91;153108.59;5066142;28;20063;-67
2023/06/02 10:03:08;;;;;;;5.97;4.13;;;;;;;22.62;44.22;152964.94;5066195;28;20024;-68
2023/06/02 10:05:35;;;;;;;10.63;4.70;;;;;;;22.93;44.78;153042.53;5066028;28;20268;-67
2023/06/02 10:08:19;;;;;;;8.30;4.35;;;;;;;23.13;44.87;153093.09;5065790;28;20045;-65
2023/06/02 10:11:04;;;;;;;7.70;3.75;;;;;;;23.09;44.42;153082.69;5047777;28;20031;-66
2023/06/02 10:13:55;;;;;;;8.80;4.50;;;;;;;23.38;46.53;153156.44;5066117;28;20033;-67
2023/06/02 10:16:30;;;;;;;9.48;4.32;;;;;;;23.45;47.16;153173.28;5064467;28;20035;-66
2023/06/02 10:19:46;;;;;;;7.95;4.18;;;;;;;23.59;45.81;153209.50;5045968;28;20033;-65
2023/06/02 10:22:21;;;;;;;8.18;4.15;;;;;;;23.74;45.74;153245.75;5042184;28;20049;-67
2023/06/02 10:24:46;;;;;;;9.80;4.10;;;;;;;23.70;43.29;153236.72;5065512;28;20035;-67
2023/06/02 10:27:14;;;;;;;7.90;3.63;;;;;;;23.75;41.51;153248.34;5065714;28;20033;-66
2023/06/02 10:29:41;;;;;;;12.73;4.18;;;;;;;23.76;39.71;153252.22;5065153;28;20021;-67
2023/06/02 10:32:27;;;;;;;10.18;3.75;;;;;;;23.87;39.72;153279.50;5065534;28;20032;-66
2023/06/02 10:34:53;;;;;;;8.00;3.72;;;;;;;23.87;39.64;153278.16;5065609;28;20092;-67
2023/06/02 10:37:20;;;;;;;7.20;3.80;;;;;;;23.84;41.00;153271.63;5065266;28;20052;-68
2023/06/02 10:39:48;;;;;;;9.05;3.70;;;;;;;23.65;42.02;153222.47;5064807;28;20367;-67
2023/06/02 10:42:15;;;;;;;7.53;3.90;;;;;;;23.71;40.82;153238.00;5063633;28;20029;-67
2023/06/02 10:44:41;;;;;;;10.48;3.85;;;;;;;23.62;40.41;153216.00;5060573;28;20045;-67
2023/06/02 10:47:33;;;;;;;12.10;4.47;;;;;;;23.56;40.80;153201.75;5049989;28;20083;-66
2023/06/02 10:50:02;;;;;;;10.20;4.47;;;;;;;23.59;40.91;153209.50;5062809;28;20094;-66
2023/06/02 10:52:32;;;;;;;8.50;4.30;;;;;;;23.31;41.28;153137.06;5063854;28;20028;-66
2023/06/02 10:55:18;;;;;;;8.25;3.88;;;;;;;23.59;41.93;153209.50;5064992;28;20067;-66
2023/06/02 10:58:07;;;;;;;8.63;3.88;;;;;;;23.71;40.47;153238.00;5051162;28;20064;-65
2023/06/02 11:00:34;;;;;;;6.35;3.80;;;;;;;23.65;39.68;153223.75;5062511;28;20116;-66
2023/06/02 11:03:00;;;;;;;7.38;3.33;;;;;;;23.64;39.43;153219.88;5063971;28;20028;-66
2023/06/02 11:05:30;;;;;;;9.98;4.25;;;;;;;23.80;39.19;153261.31;5063879;28;20268;-67
2023/06/02 11:08:12;;;;;;;9.75;3.95;;;;;;;24.01;39.00;153314.41;5063176;28;20040;-65
2023/06/02 11:10:57;;;;;;;7.93;4.13;;;;;;;24.13;38.58;153345.50;5046625;28;20025;-65
2023/06/02 11:13:24;;;;;;;8.68;4.05;;;;;;;24.00;38.01;153310.53;5047450;28;20029;-66
2023/06/02 11:15:58;;;;;;;6.22;3.65;;;;;;;23.98;38.98;153305.38;5064759;28;20042;-66
2023/06/02 11:18:25;;;;;;;10.38;4.65;;;;;;;23.92;38.90;153291.13;5060241;28;20031;-65
2023/06/02 11:20:54;;;;;;;7.35;3.50;;;;;;;23.65;38.68;153222.47;5038720;28;20108;-67
2023/06/02 11:23:21;;;;;;;10.65;4.05;;;;;;;23.63;38.72;153217.28;5046877;28;20126;-67
2023/06/02 11:25:58;;;;;;;6.53;4.35;;;;;;;23.92;38.74;153292.41;5064419;28;20041;-68
2023/06/02 11:28:24;;;;;;;10.25;3.78;;;;;;;24.08;39.19;153332.53;5064306;28;20020;-68
2023/06/02 11:31:08;;;;;;;6.80;3.85;;;;;;;23.92;37.59;153292.41;5062548;28;20029;-67